Time;durP1;ratioP1;P1;durP2;ratioP2;P2;SDS_P1;SDS_P2;PMS_P1;PMS_P2;Temp;Humidity;BMP_temperature;BMP_pressure;BME280_temperature;BME280_humidity;BME280_pressure;Samples;Min_cycle;Max_cycle;Signal;HPM_P1;HPM_P2
2023/01/09 00:01:20;;;;;;;30.17;20.77;;;;;;;;;;5038565;28;20028;-73
2023/01/09 00:03:46;;;;;;;26.55;19.52;;;;;;;;;;5045251;28;20047;-72
2023/01/09 00:06:12;;;;;;;30.73;20.25;;;;;;;;;;5053869;28;20013;-74
2023/01/09 00:08:38;;;;;;;30.63;21.27;;;;;;;;;;5036982;28;20043;-74
2023/01/09 00:11:04;;;;;;;27.30;19.98;;;;;;;;;;5050471;28;20096;-73
2023/01/09 00:13:30;;;;;;;27.65;20.23;;;;;;;;;;5006830;28;20037;-73
2023/01/09 00:15:56;;;;;;;27.52;19.15;;;;;;;;;;5053928;28;20033;-74
2023/01/09 00:18:25;;;;;;;26.98;19.75;;;;;;;;;;5038814;28;20025;-71
2023/01/09 00:20:51;;;;;;;28.10;18.77;;;;;;;;;;5049866;28;20463;-73
2023/01/09 00:23:18;;;;;;;26.58;18.75;;;;;;;;;;5038803;28;20028;-72
2023/01/09 00:25:44;;;;;;;28.13;20.10;;;;;;;;;;5044314;28;20017;-71
2023/01/09 00:28:10;;;;;;;26.77;18.65;;;;;;;;;;5045730;28;20035;-72
2023/01/09 00:30:39;;;;;;;25.08;18.17;;;;;;;;;;5037004;28;20036;-72
2023/01/09 00:33:05;;;;;;;25.70;17.98;;;;;;;;;;5036733;28;20083;-72
2023/01/09 00:35:31;;;;;;;27.05;19.27;;;;;;;;;;5027829;28;20056;-71
2023/01/09 00:37:57;;;;;;;26.10;18.33;;;;;;;;;;5043683;28;20036;-71
2023/01/09 00:40:23;;;;;;;25.20;17.52;;;;;;;;;;5038535;28;20026;-72
2023/01/09 00:42:51;;;;;;;30.17;19.48;;;;;;;;;;5031927;28;20051;-72
2023/01/09 00:45:20;;;;;;;27.85;18.73;;;;;;;;;;5021168;28;20013;-72
2023/01/09 00:47:51;;;;;;;27.15;19.30;;;;;;;;;;5052979;28;20075;-73
2023/01/09 00:50:25;;;;;;;29.95;20.20;;;;;;;;;;5039712;28;20100;-72
2023/01/09 00:52:52;;;;;;;32.65;21.45;;;;;;;;;;5049582;28;20028;-72
2023/01/09 00:55:18;;;;;;;31.58;19.98;;;;;;;;;;5020552;28;20020;-72
2023/01/09 00:57:45;;;;;;;32.85;20.00;;;;;;;;;;5052436;28;20017;-73
2023/01/09 01:00:11;;;;;;;32.88;20.92;;;;;;;;;;5040219;28;20037;-72
2023/01/09 01:02:37;;;;;;;30.38;20.75;;;;;;;;;;5049962;28;20034;-74
2023/01/09 01:07:48;;;;;;;31.35;20.25;;;;;;;;;;5071393;28;20048;-74
2023/01/09 01:10:20;;;;;;;31.75;20.13;;;;;;;;;;5059967;28;20402;-73
2023/01/09 01:12:47;;;;;;;34.00;20.83;;;;;;;;;;5040238;28;20022;-72
2023/01/09 01:15:13;;;;;;;32.65;20.45;;;;;;;;;;5056405;28;20018;-72
2023/01/09 01:17:40;;;;;;;34.38;20.75;;;;;;;;;;5028943;28;20090;-72
2023/01/09 01:20:08;;;;;;;34.97;21.17;;;;;;;;;;5056936;28;20052;-72
2023/01/09 01:22:34;;;;;;;32.35;20.67;;;;;;;;;;5038481;28;20147;-72
2023/01/09 01:25:00;;;;;;;29.27;19.95;;;;;;;;;;5020958;28;20097;-72
2023/01/09 01:27:27;;;;;;;32.58;20.30;;;;;;;;;;5055413;28;20014;-73
2023/01/09 01:29:53;;;;;;;31.95;19.80;;;;;;;;;;5043710;28;20025;-75
2023/01/09 01:32:19;;;;;;;31.13;20.45;;;;;;;;;;5046932;28;20017;-74
2023/01/09 01:34:45;;;;;;;31.83;20.13;;;;;;;;;;5036605;28;20093;-73
2023/01/09 01:37:11;;;;;;;31.83;21.13;;;;;;;;;;5047549;28;20032;-74
2023/01/09 01:39:37;;;;;;;35.13;22.05;;;;;;;;;;5021991;28;20453;-72
2023/01/09 01:42:06;;;;;;;34.90;22.40;;;;;;;;;;5033937;28;20031;-72
2023/01/09 01:44:51;;;;;;;34.92;21.95;;;;;;;;;;5051798;28;20475;-72
2023/01/09 01:47:17;;;;;;;32.10;20.25;;;;;;;;;;5042564;28;20076;-71
2023/01/09 01:49:44;;;;;;;33.40;21.27;;;;;;;;;;5051717;28;20025;-72
2023/01/09 01:52:10;;;;;;;30.45;19.02;;;;;;;;;;5038955;28;20017;-72
2023/01/09 01:54:36;;;;;;;35.95;20.98;;;;;;;;;;5047966;28;20527;-68
2023/01/09 01:57:04;;;;;;;29.20;18.48;;;;;;;;;;5034861;28;20067;-72
2023/01/09 01:59:36;;;;;;;33.28;18.92;;;;;;;;;;5051573;28;20021;-73
2023/01/09 02:02:02;;;;;;;31.75;20.40;;;;;;;;;;5040078;28;20033;-72
2023/01/09 02:04:29;;;;;;;31.30;19.00;;;;;;;;;;5039873;28;20025;-72
2023/01/09 02:06:56;;;;;;;29.75;18.60;;;;;;;;;;5031124;28;20055;-71
2023/01/09 02:09:24;;;;;;;27.90;18.65;;;;;;;;;;5037542;28;20486;-71
2023/01/09 02:11:51;;;;;;;29.30;18.40;;;;;;;;;;5041569;28;20025;-72
2023/01/09 02:14:18;;;;;;;27.50;17.42;;;;;;;;;;5045296;28;20449;-72
2023/01/09 02:16:47;;;;;;;28.42;17.95;;;;;;;;;;5034563;28;20061;-71
2023/01/09 02:19:31;;;;;;;33.15;18.15;;;;;;;;;;5030482;28;20075;-71
2023/01/09 02:21:56;;;;;;;27.42;17.33;;;;;;;;;;5051113;28;20028;-71
2023/01/09 02:24:35;;;;;;;27.15;17.73;;;;;;;;;;5051438;28;20033;-72
2023/01/09 02:27:12;;;;;;;28.77;18.67;;;;;;;;;;5039927;28;20502;-72
2023/01/09 02:29:52;;;;;;;27.05;17.30;;;;;;;;;;5042268;28;20357;-74
2023/01/09 02:32:28;;;;;;;27.75;17.77;;;;;;;;;;5042939;28;20025;-72
2023/01/09 02:35:03;;;;;;;26.88;17.98;;;;;;;;;;5016032;28;20032;-72
2023/01/09 02:37:38;;;;;;;25.95;17.40;;;;;;;;;;5042571;28;20053;-71
2023/01/09 02:40:04;;;;;;;29.08;18.13;;;;;;;;;;5041539;28;20040;-72
2023/01/09 02:42:31;;;;;;;27.27;17.35;;;;;;;;;;5050716;28;20025;-71
2023/01/09 02:44:57;;;;;;;28.23;17.40;;;;;;;;;;5034294;28;20029;-72
2023/01/09 02:47:23;;;;;;;29.63;18.50;;;;;;;;;;5050469;28;20477;-72
2023/01/09 02:49:52;;;;;;;26.73;17.33;;;;;;;;;;5041346;28;20096;-74
2023/01/09 02:52:21;;;;;;;30.40;20.38;;;;;;;;;;5044748;28;20437;-72
2023/01/09 02:54:53;;;;;;;31.98;20.17;;;;;;;;;;5034391;28;20033;-72
2023/01/09 02:57:19;;;;;;;32.67;21.05;;;;;;;;;;5044974;28;20025;-72
2023/01/09 02:59:56;;;;;;;30.98;20.55;;;;;;;;;;5040127;28;20071;-72
2023/01/09 03:02:26;;;;;;;33.50;21.52;;;;;;;;;;5036583;28;20037;-72
2023/01/09 03:05:00;;;;;;;34.63;22.00;;;;;;;;;;5040914;28;20089;-72
2023/01/09 03:07:31;;;;;;;32.30;21.85;;;;;;;;;;5043826;28;20026;-72
2023/01/09 03:10:02;;;;;;;36.10;22.55;;;;;;;;;;5041701;28;20017;-72
2023/01/09 03:12:31;;;;;;;37.85;23.05;;;;;;;;;;5046289;28;20021;-72
2023/01/09 03:14:59;;;;;;;35.30;23.23;;;;;;;;;;5016491;28;20032;-71
2023/01/09 03:17:33;;;;;;;35.83;22.10;;;;;;;;;;5044085;28;20026;-71
2023/01/09 03:20:00;;;;;;;39.17;23.33;;;;;;;;;;5044003;28;20032;-71
2023/01/09 03:22:26;;;;;;;35.97;23.17;;;;;;;;;;5050977;28;20025;-72
2023/01/09 03:24:52;;;;;;;46.10;25.30;;;;;;;;;;5016516;28;20024;-73
2023/01/09 03:27:18;;;;;;;43.28;26.58;;;;;;;;;;5045061;28;20097;-72
2023/01/09 03:29:44;;;;;;;46.03;28.20;;;;;;;;;;5040239;28;20021;-72
2023/01/09 03:32:10;;;;;;;49.72;29.40;;;;;;;;;;5021340;28;20025;-72
2023/01/09 03:34:36;;;;;;;49.05;29.25;;;;;;;;;;5051098;28;20025;-73
2023/01/09 03:37:03;;;;;;;43.35;26.80;;;;;;;;;;5042175;28;20024;-73
2023/01/09 03:39:30;;;;;;;50.38;28.30;;;;;;;;;;5052342;28;20018;-72
2023/01/09 03:41:56;;;;;;;46.28;27.60;;;;;;;;;;5049995;28;20021;-72
2023/01/09 03:44:22;;;;;;;47.42;27.33;;;;;;;;;;5044491;28;20077;-72
2023/01/09 03:46:49;;;;;;;41.58;26.25;;;;;;;;;;5055045;28;20104;-72
2023/01/09 03:49:16;;;;;;;50.58;28.40;;;;;;;;;;5026506;28;20041;-72
2023/01/09 03:51:42;;;;;;;49.58;30.00;;;;;;;;;;5046870;28;20022;-72
2023/01/09 03:54:08;;;;;;;48.85;30.30;;;;;;;;;;5047593;28;20032;-72
2023/01/09 03:56:34;;;;;;;51.90;29.67;;;;;;;;;;5020372;28;20021;-72
2023/01/09 03:59:00;;;;;;;56.55;31.23;;;;;;;;;;5050614;28;20075;-72
2023/01/09 04:01:26;;;;;;;58.05;29.92;;;;;;;;;;5042093;28;20025;-72
2023/01/09 04:03:52;;;;;;;52.53;30.98;;;;;;;;;;5046836;28;20018;-72
2023/01/09 04:06:18;;;;;;;54.42;29.75;;;;;;;;;;5040555;28;20029;-71
2023/01/09 04:08:45;;;;;;;56.28;32.22;;;;;;;;;;5032307;28;20024;-71
2023/01/09 04:11:11;;;;;;;58.97;31.65;;;;;;;;;;5039073;28;20407;-71
2023/01/09 04:13:37;;;;;;;53.17;30.35;;;;;;;;;;5045794;28;20286;-72
2023/01/09 04:16:03;;;;;;;47.63;28.90;;;;;;;;;;5045589;28;20032;-72
2023/01/09 04:18:29;;;;;;;51.17;28.95;;;;;;;;;;5038822;28;20104;-73
2023/01/09 04:20:55;;;;;;;51.15;28.60;;;;;;;;;;5051101;28;20112;-73
2023/01/09 04:23:21;;;;;;;47.75;28.13;;;;;;;;;;5039491;28;20021;-71
2023/01/09 04:25:47;;;;;;;49.83;28.17;;;;;;;;;;5044107;28;20017;-71
2023/01/09 04:28:13;;;;;;;45.40;27.27;;;;;;;;;;5046291;28;20493;-72
2023/01/09 04:30:40;;;;;;;49.85;27.95;;;;;;;;;;5019069;28;20120;-72
2023/01/09 04:33:06;;;;;;;50.70;28.83;;;;;;;;;;5031682;28;20095;-71
2023/01/09 04:35:32;;;;;;;44.05;26.35;;;;;;;;;;5040686;28;20550;-72
2023/01/09 04:37:59;;;;;;;47.03;28.15;;;;;;;;;;5053066;28;20031;-73
2023/01/09 04:40:25;;;;;;;46.60;27.92;;;;;;;;;;5038161;28;20036;-70
2023/01/09 04:42:51;;;;;;;44.92;26.70;;;;;;;;;;5049534;28;20021;-70
2023/01/09 04:45:17;;;;;;;44.78;27.40;;;;;;;;;;5038626;28;20043;-71
2023/01/09 04:47:44;;;;;;;46.30;27.40;;;;;;;;;;5043993;28;20386;-71
2023/01/09 04:50:11;;;;;;;47.45;27.63;;;;;;;;;;5027708;28;20120;-71
2023/01/09 04:52:37;;;;;;;37.88;24.08;;;;;;;;;;5053364;28;20032;-71
2023/01/09 04:55:04;;;;;;;45.13;27.17;;;;;;;;;;5036508;28;20021;-71
2023/01/09 04:57:30;;;;;;;46.75;27.10;;;;;;;;;;5052448;28;20025;-71
2023/01/09 04:59:56;;;;;;;45.60;26.48;;;;;;;;;;5042234;28;20029;-71
2023/01/09 05:02:22;;;;;;;41.28;25.25;;;;;;;;;;5029251;28;20390;-71
2023/01/09 05:04:48;;;;;;;42.30;24.85;;;;;;;;;;5044398;28;20021;-71
2023/01/09 05:07:14;;;;;;;38.78;24.70;;;;;;;;;;5029433;28;20106;-71
2023/01/09 05:09:40;;;;;;;40.83;24.65;;;;;;;;;;5041256;28;20028;-71
2023/01/09 05:12:06;;;;;;;41.97;25.77;;;;;;;;;;5040396;28;20108;-72
2023/01/09 05:14:32;;;;;;;42.00;24.60;;;;;;;;;;5048460;28;20025;-71
2023/01/09 05:16:58;;;;;;;39.80;24.25;;;;;;;;;;5035773;28;20808;-69
2023/01/09 05:19:24;;;;;;;38.22;23.15;;;;;;;;;;5051969;28;20540;-71
2023/01/09 05:21:50;;;;;;;38.30;23.25;;;;;;;;;;5052434;28;20036;-72
2023/01/09 05:24:16;;;;;;;38.60;22.75;;;;;;;;;;5038745;28;20075;-72
2023/01/09 05:26:42;;;;;;;37.90;23.10;;;;;;;;;;5048573;28;20541;-72
2023/01/09 05:29:09;;;;;;;39.08;22.98;;;;;;;;;;5036072;28;20021;-70
2023/01/09 05:31:35;;;;;;;38.22;23.33;;;;;;;;;;5044482;28;20017;-71
2023/01/09 05:34:01;;;;;;;37.72;22.90;;;;;;;;;;5043450;28;20070;-71
2023/01/09 05:36:28;;;;;;;35.67;23.23;;;;;;;;;;5037617;28;20029;-71
2023/01/09 05:38:56;;;;;;;35.13;22.38;;;;;;;;;;5048204;28;20025;-71
2023/01/09 05:41:22;;;;;;;36.50;23.65;;;;;;;;;;5038062;28;20013;-71
2023/01/09 05:43:48;;;;;;;34.70;21.58;;;;;;;;;;5042418;28;20037;-72
2023/01/09 05:46:14;;;;;;;34.08;20.65;;;;;;;;;;5032198;28;20472;-73
2023/01/09 05:48:40;;;;;;;37.78;23.83;;;;;;;;;;5048312;28;20020;-73
2023/01/09 05:51:06;;;;;;;42.08;24.30;;;;;;;;;;5036396;28;20017;-73
2023/01/09 05:53:32;;;;;;;38.33;23.08;;;;;;;;;;5044353;28;20468;-73
2023/01/09 05:55:58;;;;;;;33.92;22.08;;;;;;;;;;5042084;28;20025;-73
2023/01/09 05:58:24;;;;;;;35.15;21.27;;;;;;;;;;5036831;28;20098;-73
2023/01/09 06:00:51;;;;;;;39.92;22.92;;;;;;;;;;5048052;28;20384;-73
2023/01/09 06:03:17;;;;;;;35.22;21.85;;;;;;;;;;5037272;28;20032;-71
2023/01/09 06:05:43;;;;;;;38.90;23.35;;;;;;;;;;5042615;28;20017;-72
2023/01/09 06:08:09;;;;;;;36.45;22.50;;;;;;;;;;5044155;28;20037;-73
2023/01/09 06:10:36;;;;;;;37.38;22.10;;;;;;;;;;5035884;28;20037;-73
2023/01/09 06:13:01;;;;;;;38.08;22.05;;;;;;;;;;5057260;28;20025;-73
2023/01/09 06:15:27;;;;;;;35.80;22.25;;;;;;;;;;5067184;28;20040;-73
2023/01/09 06:17:53;;;;;;;31.05;21.00;;;;;;;;;;5060979;28;20025;-73
2023/01/09 06:20:19;;;;;;;37.20;21.70;;;;;;;;;;5067852;28;20110;-72
2023/01/09 06:22:46;;;;;;;33.78;20.63;;;;;;;;;;5050702;28;20075;-72
2023/01/09 06:25:12;;;;;;;39.72;21.92;;;;;;;;;;5035842;28;20044;-72
2023/01/09 06:27:38;;;;;;;34.03;21.60;;;;;;;;;;5043325;28;20518;-72
2023/01/09 06:30:04;;;;;;;34.75;20.73;;;;;;;;;;5043164;28;20021;-71
2023/01/09 06:32:30;;;;;;;29.92;18.77;;;;;;;;;;5036140;28;20027;-72
2023/01/09 06:34:56;;;;;;;31.80;20.30;;;;;;;;;;5047902;28;20482;-72
2023/01/09 06:37:22;;;;;;;33.30;20.35;;;;;;;;;;5036755;28;20543;-72
2023/01/09 06:39:48;;;;;;;26.30;16.20;;;;;;;;;;5041809;28;20030;-70
2023/01/09 06:42:14;;;;;;;31.95;19.13;;;;;;;;;;5026661;28;20021;-70
2023/01/09 06:44:40;;;;;;;29.48;17.35;;;;;;;;;;5051118;28;20112;-73
2023/01/09 06:47:06;;;;;;;21.65;14.75;;;;;;;;;;5017124;28;20581;-70
2023/01/09 06:49:32;;;;;;;25.80;16.20;;;;;;;;;;5051139;28;20048;-72
2023/01/09 06:51:58;;;;;;;24.27;15.55;;;;;;;;;;5040142;28;20033;-72
2023/01/09 06:54:24;;;;;;;19.35;14.20;;;;;;;;;;5045726;28;20025;-72
2023/01/09 06:56:50;;;;;;;23.40;15.15;;;;;;;;;;5034241;28;20040;-71
2023/01/09 06:59:16;;;;;;;22.95;14.02;;;;;;;;;;5045838;28;20021;-71
2023/01/09 07:01:42;;;;;;;22.08;14.60;;;;;;;;;;5039746;28;20028;-73
2023/01/09 07:04:12;;;;;;;20.75;13.98;;;;;;;;;;5047126;28;20104;-72
2023/01/09 07:06:38;;;;;;;23.38;14.70;;;;;;;;;;5047613;28;20036;-72
2023/01/09 07:09:05;;;;;;;23.27;15.05;;;;;;;;;;5038721;28;20360;-73
2023/01/09 07:11:31;;;;;;;25.25;14.63;;;;;;;;;;5047886;28;20025;-72
2023/01/09 07:13:57;;;;;;;22.58;14.52;;;;;;;;;;5045909;28;20086;-71
2023/01/09 07:16:23;;;;;;;23.98;16.08;;;;;;;;;;5022406;28;20025;-71
2023/01/09 07:18:49;;;;;;;21.50;13.65;;;;;;;;;;5033169;28;20368;-71
2023/01/09 07:21:15;;;;;;;19.90;14.15;;;;;;;;;;5049227;28;20021;-73
2023/01/09 07:23:41;;;;;;;22.08;13.57;;;;;;;;;;5043384;28;20017;-72
2023/01/09 07:26:07;;;;;;;21.42;13.60;;;;;;;;;;5042785;28;20021;-72
2023/01/09 07:28:33;;;;;;;20.73;14.20;;;;;;;;;;5050037;28;20031;-72
2023/01/09 07:31:03;;;;;;;24.60;15.05;;;;;;;;;;5037871;28;20063;-72
2023/01/09 07:33:29;;;;;;;21.65;14.70;;;;;;;;;;5047950;28;20033;-73
2023/01/09 07:35:55;;;;;;;22.85;14.32;;;;;;;;;;5044934;28;20443;-73
2023/01/09 07:38:21;;;;;;;22.88;14.80;;;;;;;;;;5040055;28;20116;-72
2023/01/09 07:40:47;;;;;;;22.10;15.05;;;;;;;;;;5050718;28;20112;-72
2023/01/09 07:43:13;;;;;;;22.08;14.82;;;;;;;;;;5039078;28;20100;-72
2023/01/09 07:45:39;;;;;;;29.05;16.20;;;;;;;;;;5046319;28;20020;-72
2023/01/09 07:48:05;;;;;;;23.55;15.80;;;;;;;;;;5045944;28;20025;-72
2023/01/09 07:50:31;;;;;;;24.88;15.50;;;;;;;;;;5038378;28;20377;-72
2023/01/09 07:52:58;;;;;;;22.90;15.00;;;;;;;;;;5053536;28;20090;-74
2023/01/09 07:55:24;;;;;;;24.65;15.57;;;;;;;;;;5047669;28;20021;-73
2023/01/09 07:57:50;;;;;;;25.48;17.08;;;;;;;;;;5025883;28;20029;-75
2023/01/09 08:00:16;;;;;;;26.10;16.67;;;;;;;;;;5053935;28;20036;-75
2023/01/09 08:02:42;;;;;;;27.50;17.75;;;;;;;;;;5053405;28;20025;-75
2023/01/09 08:05:13;;;;;;;23.92;16.25;;;;;;;;;;5046294;28;20443;-73
2023/01/09 08:07:40;;;;;;;25.52;16.25;;;;;;;;;;5028564;28;20037;-75
2023/01/09 08:10:06;;;;;;;24.98;15.95;;;;;;;;;;5046132;28;20044;-73
2023/01/09 08:12:32;;;;;;;28.25;16.25;;;;;;;;;;5038285;28;20067;-72
2023/01/09 08:14:58;;;;;;;23.90;16.63;;;;;;;;;;5050027;28;20025;-75
2023/01/09 08:17:24;;;;;;;27.08;15.32;;;;;;;;;;5039205;28;20384;-74
2023/01/09 08:19:50;;;;;;;26.50;15.95;;;;;;;;;;5053814;28;20378;-74
2023/01/09 08:22:16;;;;;;;26.00;17.05;;;;;;;;;;5040342;28;20113;-74
2023/01/09 08:24:42;;;;;;;25.75;16.73;;;;;;;;;;5050275;28;20025;-71
2023/01/09 08:27:08;;;;;;;30.42;16.50;;;;;;;;;;5037614;28;20021;-74
2023/01/09 08:29:34;;;;;;;23.45;16.42;;;;;;;;;;5045709;28;20018;-74
2023/01/09 08:32:00;;;;;;;23.65;15.93;;;;;;;;;;5042587;28;22478;-75
2023/01/09 08:34:27;;;;;;;20.58;14.45;;;;;;;;;;5052406;28;20017;-74
2023/01/09 08:36:53;;;;;;;21.17;13.55;;;;;;;;;;5035077;28;20029;-76
2023/01/09 08:39:19;;;;;;;20.23;12.40;;;;;;;;;;5046038;28;20113;-75
2023/01/09 08:47:15;;;;;;;11.52;7.85;;;;;;;;;;5038322;28;20102;-74
2023/01/09 08:49:41;;;;;;;5.90;4.00;;;;;;;;;;5045143;28;20017;-74
2023/01/09 08:52:07;;;;;;;6.90;4.57;;;;;;;;;;5045801;28;20497;-74
2023/01/09 08:54:37;;;;;;;4.82;3.65;;;;;;;;;;5038494;28;20029;-74
2023/01/09 08:57:03;;;;;;;5.00;3.33;;;;;;;;;;5049800;28;20028;-72
2023/01/09 08:59:29;;;;;;;5.55;3.47;;;;;;;;;;5041189;28;20028;-72
2023/01/09 09:01:56;;;;;;;3.30;2.72;;;;;;;;;;5043475;28;20025;-74
2023/01/09 09:04:22;;;;;;;4.60;3.03;;;;;;;;;;5054103;28;20092;-73
2023/01/09 09:06:48;;;;;;;6.00;2.80;;;;;;;;;;5045419;28;20112;-74
2023/01/09 09:09:14;;;;;;;4.22;2.85;;;;;;;;;;5056459;28;20024;-74
2023/01/09 09:11:40;;;;;;;3.20;2.70;;;;;;;;;;5051707;28;20029;-72
2023/01/09 09:16:51;;;;;;;4.22;2.70;;;;;;;;;;5056402;28;20402;-73
2023/01/09 09:19:17;;;;;;;3.72;2.30;;;;;;;;;;5050926;28;20079;-73
2023/01/09 09:21:43;;;;;;;3.97;2.58;;;;;;;;;;5052808;28;20025;-75
2023/01/09 09:24:09;;;;;;;4.93;2.78;;;;;;;;;;5040007;28;20047;-74
2023/01/09 09:26:35;;;;;;;3.17;2.55;;;;;;;;;;5048659;28;20162;-73
2023/01/09 09:29:01;;;;;;;3.50;2.40;;;;;;;;;;5035148;28;20017;-74
2023/01/09 09:31:27;;;;;;;4.13;2.63;;;;;;;;;;5052017;28;20025;-74
2023/01/09 09:33:53;;;;;;;2.97;2.10;;;;;;;;;;5024342;28;20052;-74
2023/01/09 09:36:19;;;;;;;2.67;2.28;;;;;;;;;;5046077;28;20028;-73
2023/01/09 09:38:45;;;;;;;3.45;2.35;;;;;;;;;;5050893;28;20471;-74
2023/01/09 09:46:56;;;;;;;4.45;2.80;;;;;;;;;;5048393;28;20036;-73
2023/01/09 09:49:35;;;;;;;3.92;2.58;;;;;;;;;;5038093;28;20383;-73
2023/01/09 09:52:01;;;;;;;4.72;2.47;;;;;;;;;;5040718;28;20026;-74
2023/01/09 09:54:32;;;;;;;2.92;2.60;;;;;;;;;;5046875;28;20025;-73
2023/01/09 09:56:59;;;;;;;4.03;2.95;;;;;;;;;;5035195;28;20464;-75
2023/01/09 09:59:31;;;;;;;5.47;2.53;;;;;;;;;;5045084;28;20440;-74
2023/01/09 10:02:04;;;;;;;4.72;2.22;;;;;;;;;;5042708;28;20112;-74
2023/01/09 10:04:32;;;;;;;2.50;2.17;;;;;;;;;;5043420;28;20078;-74
2023/01/09 10:07:04;;;;;;;3.95;2.58;;;;;;;;;;5048823;28;20502;-72
2023/01/09 10:09:49;;;;;;;3.53;2.13;;;;;;;;;;5039232;28;20251;-73
2023/01/09 10:12:18;;;;;;;3.83;2.28;;;;;;;;;;5033910;28;20021;-74
2023/01/09 10:14:44;;;;;;;4.45;2.25;;;;;;;;;;5032999;28;20039;-73
2023/01/09 10:17:17;;;;;;;3.92;1.90;;;;;;;;;;5035731;28;20044;-73
2023/01/09 10:19:43;;;;;;;4.50;2.22;;;;;;;;;;5051607;28;20013;-73
2023/01/09 10:22:20;;;;;;;2.53;2.08;;;;;;;;;;5039362;28;20021;-74
2023/01/09 10:25:05;;;;;;;3.28;1.92;;;;;;;;;;5047941;28;20036;-72
2023/01/09 10:27:31;;;;;;;2.80;1.95;;;;;;;;;;5038283;28;20017;-76
2023/01/09 10:30:12;;;;;;;2.85;1.95;;;;;;;;;;5022742;28;20121;-75
2023/01/09 10:33:00;;;;;;;2.63;2.05;;;;;;;;;;5047520;28;20025;-76
2023/01/09 10:35:36;;;;;;;2.53;2.28;;;;;;;;;;5037877;28;20483;-74
2023/01/09 10:38:05;;;;;;;4.43;1.90;;;;;;;;;;5039466;28;20080;-73
2023/01/09 10:40:43;;;;;;;2.50;2.17;;;;;;;;;;5046791;28;20112;-74
2023/01/09 10:43:12;;;;;;;2.40;2.20;;;;;;;;;;5035494;28;20021;-75
2023/01/09 10:45:45;;;;;;;4.38;2.30;;;;;;;;;;5044135;28;20108;-74
2023/01/09 10:48:38;;;;;;;3.50;2.70;;;;;;;;;;5044272;28;20045;-74
2023/01/09 10:51:12;;;;;;;5.80;3.03;;;;;;;;;;5030434;28;20033;-74
2023/01/09 10:53:42;;;;;;;3.95;2.22;;;;;;;;;;5043788;28;20180;-73
2023/01/09 10:56:13;;;;;;;3.08;2.15;;;;;;;;;;5026355;28;20033;-75
2023/01/09 10:58:39;;;;;;;1.60;1.35;;;;;;;;;;5017170;28;20546;-76
2023/01/09 11:01:06;;;;;;;3.05;1.80;;;;;;;;;;5029528;28;20496;-75
2023/01/09 11:03:33;;;;;;;1.52;1.13;;;;;;;;;;5039400;28;20041;-74
2023/01/09 11:06:00;;;;;;;1.33;1.20;;;;;;;;;;5023332;28;20067;-74
2023/01/09 11:08:29;;;;;;;2.00;1.40;;;;;;;;;;5028792;28;20048;-77
2023/01/09 11:10:56;;;;;;;1.98;1.30;;;;;;;;;;5017760;28;20032;-75
2023/01/09 11:13:24;;;;;;;1.77;1.30;;;;;;;;;;5047364;28;20021;-77
2023/01/09 11:16:17;;;;;;;1.08;0.98;;;;;;;;;;5041940;28;20578;-75
2023/01/09 11:18:51;;;;;;;1.77;1.20;;;;;;;;;;5033141;28;20076;-74
2023/01/09 11:21:35;;;;;;;1.95;1.17;;;;;;;;;;5047251;28;20052;-74
2023/01/09 11:24:16;;;;;;;2.70;1.48;;;;;;;;;;5044002;28;20032;-76
2023/01/09 11:26:42;;;;;;;1.52;1.02;;;;;;;;;;5036377;28;20024;-74
2023/01/09 11:29:11;;;;;;;1.60;1.20;;;;;;;;;;5048660;28;20073;-75
2023/01/09 11:31:37;;;;;;;1.23;0.77;;;;;;;;;;5045889;28;20025;-78
2023/01/09 11:34:03;;;;;;;1.38;1.08;;;;;;;;;;5049523;28;20017;-74
2023/01/09 11:36:30;;;;;;;3.35;1.33;;;;;;;;;;5056509;28;20025;-75
2023/01/09 11:39:01;;;;;;;1.92;1.08;;;;;;;;;;5046044;28;20033;-75
2023/01/09 11:41:27;;;;;;;;;;;;;;;;;;5050773;28;20049;-76
2023/01/09 11:43:55;;;;;;;3.08;1.23;;;;;;;;;;5047494;28;19959;-74
2023/01/09 11:46:33;;;;;;;1.75;0.90;;;;;;;;;;5027552;28;20021;-74
2023/01/09 11:49:00;;;;;;;2.92;1.02;;;;;;;;;;5035193;28;20043;-73
2023/01/09 11:51:30;;;;;;;2.70;0.70;;;;;;;;;;5045043;28;20022;-73
2023/01/09 11:53:56;;;;;;;1.73;0.65;;;;;;;;;;5044195;28;20024;-73
2023/01/09 11:56:22;;;;;;;0.80;0.60;;;;;;;;;;5040341;28;20029;-74
2023/01/09 11:58:48;;;;;;;1.25;0.57;;;;;;;;;;5051467;28;20029;-75
2023/01/09 12:01:25;;;;;;;2.33;0.85;;;;;;;;;;5039350;28;20024;-73
2023/01/09 12:04:00;;;;;;;3.38;0.73;;;;;;;;;;5045776;28;20090;-74
2023/01/09 12:06:45;;;;;;;2.40;0.70;;;;;;;;;;5038905;28;20369;-74
2023/01/09 12:09:16;;;;;;;1.33;0.40;;;;;;;;;;5038196;28;20017;-74
2023/01/09 12:12:00;;;;;;;5.10;0.73;;;;;;;;;;5045329;28;20021;-74
2023/01/09 12:14:45;;;;;;;1.08;0.63;;;;;;;;;;5048625;28;20029;-73
2023/01/09 12:17:29;;;;;;;3.00;0.90;;;;;;;;;;5038192;28;20025;-74
2023/01/09 12:20:13;;;;;;;1.30;0.40;;;;;;;;;;5053638;28;20021;-74
2023/01/09 12:22:49;;;;;;;2.88;0.85;;;;;;;;;;5037089;28;20098;-73
2023/01/09 12:25:22;;;;;;;2.42;0.50;;;;;;;;;;5048740;28;20033;-75
2023/01/09 12:28:06;;;;;;;2.58;0.90;;;;;;;;;;5043047;28;20100;-72
2023/01/09 12:30:38;;;;;;;1.17;0.50;;;;;;;;;;5037629;28;20083;-73
2023/01/09 12:33:19;;;;;;;1.45;0.65;;;;;;;;;;5050023;28;20472;-74
2023/01/09 12:35:45;;;;;;;;;;;;;;;;;;5042963;28;20138;-74
2023/01/09 12:38:15;;;;;;;2.80;0.70;;;;;;;;;;5040447;28;19991;-75
2023/01/09 12:40:59;;;;;;;1.80;0.60;;;;;;;;;;5049424;28;20029;-76
2023/01/09 12:43:28;;;;;;;1.50;0.77;;;;;;;;;;5039984;28;20594;-74
2023/01/09 12:46:13;;;;;;;2.65;0.50;;;;;;;;;;5042390;28;20026;-74
2023/01/09 12:48:53;;;;;;;3.58;0.63;;;;;;;;;;5049060;28;20021;-76
2023/01/09 12:51:19;;;;;;;3.42;0.65;;;;;;;;;;5038700;28;20035;-74
2023/01/09 12:53:55;;;;;;;2.05;0.77;;;;;;;;;;5053114;28;20025;-74
2023/01/09 12:56:25;;;;;;;3.45;0.52;;;;;;;;;;5038742;28;20036;-76
2023/01/09 12:59:29;;;;;;;4.28;0.60;;;;;;;;;;5049276;28;20032;-76
2023/01/09 13:01:58;;;;;;;1.63;0.60;;;;;;;;;;4967931;28;20320;-75
2023/01/09 13:04:27;;;;;;;2.75;0.75;;;;;;;;;;5020857;28;20491;-74
2023/01/09 13:06:56;;;;;;;1.73;0.47;;;;;;;;;;5031710;28;20029;-74
2023/01/09 13:10:01;;;;;;;1.92;0.77;;;;;;;;;;5031592;28;20068;-74
2023/01/09 13:12:29;;;;;;;2.95;0.60;;;;;;;;;;4950555;29;20449;-74
2023/01/09 13:15:03;;;;;;;2.45;0.80;;;;;;;;;;4951890;29;20035;-73
2023/01/09 13:17:32;;;;;;;2.78;0.70;;;;;;;;;;4994303;28;20038;-72
2023/01/09 13:19:58;;;;;;;1.33;0.80;;;;;;;;;;5033767;28;20101;-74
2023/01/09 13:22:25;;;;;;;5.28;1.00;;;;;;;;;;5052169;28;20452;-74
2023/01/09 13:24:59;;;;;;;2.58;1.00;;;;;;;;;;5052381;28;20487;-73
2023/01/09 13:27:26;;;;;;;2.22;0.98;;;;;;;;;;5051403;28;20437;-73
2023/01/09 13:29:58;;;;;;;3.20;0.88;;;;;;;;;;5051948;28;20108;-74
2023/01/09 13:32:24;;;;;;;1.95;0.50;;;;;;;;;;5052159;28;20031;-71
2023/01/09 13:34:52;;;;;;;2.10;0.82;;;;;;;;;;5034307;28;20025;-71
2023/01/09 13:37:24;;;;;;;1.48;0.60;;;;;;;;;;5052245;28;20029;-72
2023/01/09 13:40:00;;;;;;;1.13;0.80;;;;;;;;;;5051936;28;20420;-73
2023/01/09 13:42:44;;;;;;;3.10;1.00;;;;;;;;;;5051725;28;20025;-73
2023/01/09 13:45:10;;;;;;;3.05;0.70;;;;;;;;;;5051991;28;20083;-72
2023/01/09 13:47:37;;;;;;;0.95;0.52;;;;;;;;;;5050853;28;20102;-75
2023/01/09 13:50:09;;;;;;;1.80;0.93;;;;;;;;;;5051649;28;20078;-74
2023/01/09 13:52:35;;;;;;;0.80;0.70;;;;;;;;;;5051667;28;20036;-75
2023/01/09 13:55:22;;;;;;;1.08;0.55;;;;;;;;;;5050938;28;20017;-73
2023/01/09 13:58:04;;;;;;;1.85;0.90;;;;;;;;;;5050629;28;20032;-72
2023/01/09 14:00:36;;;;;;;2.25;1.05;;;;;;;;;;5028161;28;20029;-73
2023/01/09 14:03:21;;;;;;;4.13;1.15;;;;;;;;;;5037974;28;20032;-73
2023/01/09 14:05:47;;;;;;;1.00;0.82;;;;;;;;;;5030913;28;20049;-74
2023/01/09 14:08:16;;;;;;;1.25;0.98;;;;;;;;;;5031422;28;20499;-72
2023/01/09 14:10:42;;;;;;;3.17;0.75;;;;;;;;;;5030976;28;20022;-71
2023/01/09 14:13:14;;;;;;;1.63;0.80;;;;;;;;;;5031636;28;20403;-73
2023/01/09 14:15:43;;;;;;;5.05;1.00;;;;;;;;;;5031147;28;20514;-74
2023/01/09 14:18:35;;;;;;;1.08;0.77;;;;;;;;;;5013442;28;20033;-73
2023/01/09 14:21:09;;;;;;;2.28;0.60;;;;;;;;;;5028320;28;20121;-76
2023/01/09 14:23:45;;;;;;;3.25;1.02;;;;;;;;;;5031383;28;20021;-73
2023/01/09 14:26:18;;;;;;;2.45;0.90;;;;;;;;;;5031392;28;20116;-75
2023/01/09 14:28:44;;;;;;;1.92;0.90;;;;;;;;;;5030804;28;20021;-72
2023/01/09 14:31:26;;;;;;;1.40;0.60;;;;;;;;;;5031390;28;20506;-73
2023/01/09 14:33:51;;;;;;;;;;;;;;;;;;5032216;28;20108;-74
2023/01/09 14:36:20;;;;;;;1.35;0.90;;;;;;;;;;5031457;28;19945;-73
2023/01/09 14:38:54;;;;;;;3.45;1.15;;;;;;;;;;5030484;28;20092;-73
2023/01/09 14:42:04;;;;;;;2.10;0.80;;;;;;;;;;5031271;28;20112;-73
2023/01/09 14:44:30;;;;;;;1.90;0.73;;;;;;;;;;5031326;28;20021;-73
2023/01/09 14:47:09;;;;;;;1.30;0.65;;;;;;;;;;5031094;28;20491;-74
2023/01/09 14:49:38;;;;;;;3.33;1.40;;;;;;;;;;5031395;28;20498;-72
2023/01/09 14:52:12;;;;;;;4.05;0.75;;;;;;;;;;5030948;28;20025;-73
2023/01/09 14:54:40;;;;;;;2.35;0.95;;;;;;;;;;5013259;28;20097;-75
2023/01/09 14:57:24;;;;;;;2.30;0.80;;;;;;;;;;5031178;28;20029;-73